Time;durP1;ratioP1;P1;durP2;ratioP2;P2;SDS_P1;SDS_P2;PMS_P1;PMS_P2;Temp;Humidity;BMP_temperature;BMP_pressure;BME280_temperature;BME280_humidity;BME280_pressure;Samples;Min_cycle;Max_cycle;Signal;HPM_P1;HPM_P2
2022/01/22 00:00:49;;;;;;;12.77;5.55;;;2.00;99.90;;;;;;4987554;28;20041;-88
2022/01/22 00:03:16;;;;;;;13.10;5.65;;;2.00;99.90;;;;;;4983226;28;20047;-89
2022/01/22 00:05:42;;;;;;;11.60;5.68;;;2.00;99.90;;;;;;4968781;28;20027;-88
2022/01/22 00:08:08;;;;;;;12.88;5.47;;;2.10;99.90;;;;;;4984642;28;20111;-87
2022/01/22 00:10:34;;;;;;;12.27;5.63;;;2.10;99.90;;;;;;4986115;28;20054;-87
2022/01/22 00:15:29;;;;;;;13.77;5.72;;;2.10;99.90;;;;;;4983755;28;20027;-87
2022/01/22 00:17:57;;;;;;;11.10;5.75;;;2.10;99.90;;;;;;4984019;28;20019;-88
2022/01/22 00:20:25;;;;;;;13.38;6.03;;;2.10;99.90;;;;;;4983583;28;20041;-87
2022/01/22 00:22:52;;;;;;;11.75;5.63;;;2.10;99.90;;;;;;4985547;28;20099;-87
2022/01/22 00:25:20;;;;;;;23.65;7.03;;;2.10;99.90;;;;;;4994693;28;20023;-87
2022/01/22 00:27:48;;;;;;;13.57;6.35;;;2.10;99.90;;;;;;4996538;28;20022;-88
2022/01/22 00:30:17;;;;;;;12.63;5.80;;;2.10;99.90;;;;;;4980729;28;20079;-87
2022/01/22 00:32:43;;;;;;;11.68;6.43;;;2.20;99.90;;;;;;4991308;28;20105;-88
2022/01/22 00:35:10;;;;;;;12.82;6.43;;;2.20;99.90;;;;;;4996701;28;20046;-86
2022/01/22 00:37:41;;;;;;;11.30;6.43;;;2.10;99.90;;;;;;4994479;28;20027;-88
2022/01/22 00:40:10;;;;;;;16.30;6.63;;;2.10;99.90;;;;;;4993185;28;20383;-87
2022/01/22 00:42:37;;;;;;;11.27;6.43;;;2.10;99.90;;;;;;4992799;28;20027;-87
2022/01/22 00:45:03;;;;;;;11.32;6.57;;;2.10;99.90;;;;;;4993918;28;20059;-88
2022/01/22 00:47:29;;;;;;;13.45;6.28;;;2.20;99.90;;;;;;4977203;28;20023;-87
2022/01/22 00:49:55;;;;;;;13.85;6.30;;;2.10;99.90;;;;;;4993288;28;20034;-89
2022/01/22 00:52:21;;;;;;;16.02;6.63;;;2.10;99.90;;;;;;4993761;28;20095;-87
2022/01/22 00:54:47;;;;;;;13.02;6.70;;;2.10;99.90;;;;;;4992867;28;20435;-88
2022/01/22 00:57:13;;;;;;;13.50;6.15;;;2.10;99.90;;;;;;4992507;28;20027;-88
2022/01/22 00:59:39;;;;;;;17.90;6.57;;;2.10;99.90;;;;;;4992694;28;20090;-87
2022/01/22 01:02:05;;;;;;;16.17;6.55;;;2.10;99.90;;;;;;4975248;28;20027;-86
2022/01/22 01:04:34;;;;;;;17.25;6.25;;;2.20;99.90;;;;;;4985641;28;20031;-87
2022/01/22 01:07:00;;;;;;;12.70;5.47;;;2.20;99.90;;;;;;4983399;28;20034;-88
2022/01/22 01:09:26;;;;;;;10.30;5.47;;;2.20;99.90;;;;;;4984602;28;20090;-85
2022/01/22 01:11:57;;;;;;;12.73;5.47;;;2.20;99.90;;;;;;4968186;28;20036;-87
2022/01/22 01:14:31;;;;;;;12.18;4.82;;;2.10;99.90;;;;;;4985331;28;20043;-88
2022/01/22 01:33:59;;;;;;;12.38;4.43;;;2.00;99.90;;;;;;4997314;28;20050;-86
2022/01/22 01:36:14;;;;;;;5.95;3.65;;;2.00;99.90;;;;;;4995399;28;20061;-87
2022/01/22 01:38:44;;;;;;;7.22;4.28;;;2.10;99.90;;;;;;4986389;28;20023;-87
2022/01/22 01:41:21;;;;;;;10.18;3.88;;;2.10;99.90;;;;;;4988344;28;20031;-86
2022/01/22 01:43:47;;;;;;;7.03;4.47;;;2.10;99.90;;;;;;4993265;28;20519;-87
2022/01/22 01:46:41;;;;;;;9.80;3.53;;;2.10;99.90;;;;;;4987218;28;20043;-88
2022/01/22 01:49:07;;;;;;;9.05;4.50;;;2.10;99.90;;;;;;4970179;28;20030;-87
2022/01/22 01:51:34;;;;;;;8.80;3.85;;;2.10;99.90;;;;;;4992446;28;20038;-87
2022/01/22 01:54:47;;;;;;;7.45;3.83;;;2.10;99.90;;;;;;4993379;28;20066;-85
2022/01/22 01:59:36;;;;;;;7.68;3.83;;;2.00;99.90;;;;;;4993389;28;20031;-87
2022/01/22 02:02:03;;;;;;;6.97;3.50;;;2.10;99.90;;;;;;4976244;28;20054;-88
2022/01/22 02:04:30;;;;;;;7.80;3.60;;;2.10;99.90;;;;;;4992190;28;20026;-86
2022/01/22 02:06:57;;;;;;;7.68;3.88;;;2.10;99.90;;;;;;4974519;28;20019;-88
2022/01/22 02:09:26;;;;;;;6.68;3.42;;;2.10;99.90;;;;;;4994124;28;20026;-87
2022/01/22 02:12:01;;;;;;;5.75;3.03;;;2.10;99.90;;;;;;4979523;28;20106;-86
2022/01/22 02:23:45;;;;;;;7.47;3.42;;;2.10;99.90;;;;;;4996744;28;20090;-85
2022/01/22 02:26:13;;;;;;;7.65;3.20;;;2.20;99.90;;;;;;4997086;28;20090;-86
2022/01/22 02:28:48;;;;;;;8.65;4.00;;;2.10;99.90;;;;;;4997067;28;20035;-85
2022/01/22 02:31:26;;;;;;;8.30;3.60;;;2.00;99.90;;;;;;4997571;28;20114;-86
2022/01/22 02:34:24;;;;;;;5.38;3.08;;;2.00;99.90;;;;;;4997573;28;20102;-84
2022/01/22 02:37:07;;;;;;;8.13;3.42;;;2.00;99.90;;;;;;4997480;28;20041;-87
2022/01/22 02:39:45;;;;;;;8.00;3.90;;;2.00;99.90;;;;;;5000978;28;20053;-87
2022/01/22 02:42:13;;;;;;;4.75;3.08;;;2.00;99.90;;;;;;5000129;28;20031;-87
2022/01/22 02:44:46;;;;;;;7.10;3.75;;;2.00;99.90;;;;;;4999911;28;20030;-87
2022/01/22 02:47:16;;;;;;;5.78;3.65;;;1.90;99.90;;;;;;4999521;28;20086;-87
2022/01/22 02:49:42;;;;;;;8.07;3.70;;;1.80;99.90;;;;;;4998171;28;20038;-87
2022/01/22 02:52:10;;;;;;;9.55;4.00;;;1.80;99.90;;;;;;4999173;28;20089;-87
2022/01/22 02:54:40;;;;;;;5.70;3.90;;;1.70;99.90;;;;;;4998619;28;20098;-87
2022/01/22 02:57:10;;;;;;;7.97;4.13;;;1.70;99.90;;;;;;4997605;28;20046;-86
2022/01/22 02:59:38;;;;;;;8.38;3.72;;;1.70;99.90;;;;;;4994498;28;20039;-86
2022/01/22 03:02:04;;;;;;;5.80;4.00;;;1.60;99.90;;;;;;4992909;28;20023;-88
2022/01/22 03:04:31;;;;;;;6.18;3.80;;;1.60;99.90;;;;;;4978914;28;20144;-88
2022/01/22 03:06:57;;;;;;;4.97;3.20;;;1.60;99.90;;;;;;4990256;28;20031;-86
2022/01/22 03:09:30;;;;;;;4.68;3.08;;;1.60;99.90;;;;;;4985602;28;20545;-87
2022/01/22 03:22:27;;;;;;;3.13;2.28;;;1.70;99.90;;;;;;4991203;28;20050;-88
2022/01/22 03:27:41;;;;;;;5.57;2.30;;;1.80;99.90;;;;;;4986062;28;20055;-87
2022/01/22 03:30:08;;;;;;;4.78;2.47;;;1.80;99.90;;;;;;4991889;28;20011;-87
2022/01/22 03:32:44;;;;;;;4.50;2.40;;;1.80;99.90;;;;;;4973532;28;20066;-88
2022/01/22 03:37:45;;;;;;;4.68;2.65;;;1.80;99.90;;;;;;4986777;28;20041;-87
2022/01/22 03:40:13;;;;;;;2.30;1.75;;;1.90;99.90;;;;;;4986559;28;20407;-86
2022/01/22 03:42:40;;;;;;;3.67;2.20;;;1.90;99.90;;;;;;4985985;28;20035;-88
2022/01/22 03:45:09;;;;;;;2.50;1.92;;;1.90;99.90;;;;;;4973001;28;20007;-86
2022/01/22 03:47:36;;;;;;;2.72;1.75;;;1.90;99.90;;;;;;4998918;28;20022;-86
2022/01/22 03:50:04;;;;;;;3.20;1.80;;;2.00;99.90;;;;;;4998108;28;20031;-88
2022/01/22 03:52:29;;;;;;;3.80;1.73;;;2.00;99.90;;;;;;4986751;28;20038;-89
2022/01/22 03:54:56;;;;;;;2.05;1.58;;;1.90;99.90;;;;;;4984799;28;20027;-88
2022/01/22 03:57:42;;;;;;;6.32;2.05;;;1.90;99.90;;;;;;4985392;28;20043;-86
2022/01/22 04:00:09;;;;;;;2.90;1.65;;;1.90;99.90;;;;;;4984758;28;20031;-86
2022/01/22 04:03:24;;;;;;;4.75;2.05;;;1.90;99.90;;;;;;4986281;28;20022;-88
2022/01/22 04:05:49;;;;;;;7.47;1.60;;;1.90;99.90;;;;;;4986926;28;20035;-88
2022/01/22 04:08:17;;;;;;;3.45;1.85;;;1.90;99.90;;;;;;4988293;28;20035;-88
2022/01/22 04:10:43;;;;;;;2.65;1.65;;;1.90;99.90;;;;;;4988421;28;20023;-88
2022/01/22 04:13:13;;;;;;;3.38;1.98;;;1.80;99.90;;;;;;4987693;28;20081;-86
2022/01/22 04:15:40;;;;;;;2.92;1.80;;;1.90;99.90;;;;;;4988058;28;20475;-87
2022/01/22 04:28:46;;;;;;;2.05;1.58;;;1.60;99.90;;;;;;4988724;28;20035;-87
2022/01/22 04:31:12;;;;;;;2.60;1.73;;;1.60;99.90;;;;;;4986169;28;20031;-87
2022/01/22 04:33:38;;;;;;;2.25;1.70;;;1.60;99.90;;;;;;4988004;28;20030;-87
2022/01/22 04:36:05;;;;;;;3.90;1.80;;;1.70;99.90;;;;;;4989576;28;20684;-87
2022/01/22 04:38:31;;;;;;;4.50;1.80;;;1.70;99.90;;;;;;4987010;28;20022;-86
2022/01/22 04:40:59;;;;;;;3.05;1.60;;;1.70;99.90;;;;;;4984918;28;20023;-86
2022/01/22 04:43:26;;;;;;;1.67;1.58;;;1.80;99.90;;;;;;4984144;28;20034;-85
2022/01/22 04:46:09;;;;;;;2.85;1.70;;;1.80;99.90;;;;;;4990762;28;20098;-86
2022/01/22 04:56:37;;;;;;;2.40;1.40;;;1.90;99.90;;;;;;4994984;28;20031;-86
2022/01/22 04:59:03;;;;;;;7.70;1.70;;;1.90;99.90;;;;;;4973055;28;20058;-87
2022/01/22 05:01:30;;;;;;;3.63;1.33;;;1.90;99.90;;;;;;4987133;28;20031;-87
2022/01/22 05:04:01;;;;;;;3.78;1.58;;;2.00;99.90;;;;;;4993796;28;20046;-88
2022/01/22 05:06:41;;;;;;;1.73;1.30;;;2.00;99.90;;;;;;4994344;28;20035;-85
2022/01/22 05:09:20;;;;;;;3.88;1.60;;;2.00;99.90;;;;;;4995027;28;20027;-85
2022/01/22 05:11:52;;;;;;;2.53;1.45;;;2.00;99.90;;;;;;4988084;28;20038;-86
2022/01/22 05:14:18;;;;;;;2.83;1.40;;;2.00;99.90;;;;;;4986611;28;20038;-85
2022/01/22 05:16:45;;;;;;;1.83;1.40;;;2.00;99.90;;;;;;4987973;28;20026;-85
2022/01/22 05:19:18;;;;;;;1.38;1.20;;;2.00;99.90;;;;;;4973142;28;20509;-85
2022/01/22 05:21:45;;;;;;;2.22;1.58;;;2.00;99.90;;;;;;4972373;28;20034;-86
2022/01/22 05:24:16;;;;;;;2.75;1.52;;;2.00;99.90;;;;;;4990141;28;20058;-83
2022/01/22 05:32:29;;;;;;;2.08;1.70;;;1.90;99.90;;;;;;4997793;28;20042;-86
2022/01/22 05:38:09;;;;;;;2.13;1.50;;;1.90;99.90;;;;;;4997955;28;20022;-87
2022/01/22 05:40:35;;;;;;;1.60;1.40;;;1.90;99.90;;;;;;4998058;28;20023;-86
2022/01/22 05:43:04;;;;;;;2.17;1.60;;;2.00;99.90;;;;;;4998718;28;20051;-88
2022/01/22 05:45:30;;;;;;;1.60;1.23;;;2.00;99.90;;;;;;4998194;28;20022;-86
2022/01/22 05:47:56;;;;;;;1.80;1.48;;;2.10;99.90;;;;;;4997872;28;20042;-88
2022/01/22 05:50:52;;;;;;;1.85;1.38;;;2.10;99.90;;;;;;4982673;28;20023;-88
2022/01/22 06:01:11;;;;;;;2.20;1.50;;;2.10;99.90;;;;;;4967640;28;20027;-87
2022/01/22 06:04:05;;;;;;;;;;;2.20;99.90;;;;;;4968825;28;20050;-87
2022/01/22 06:06:32;;;;;;;3.15;2.00;;;2.10;99.90;;;;;;4971255;28;19910;-88
2022/01/22 06:09:03;;;;;;;3.05;1.52;;;2.10;99.90;;;;;;4970554;29;20083;-88
2022/01/22 06:11:36;;;;;;;2.47;1.65;;;2.10;99.90;;;;;;4966061;28;20023;-88
2022/01/22 06:14:03;;;;;;;2.35;1.52;;;2.20;99.90;;;;;;4971144;29;20059;-88
2022/01/22 06:16:38;;;;;;;2.10;1.50;;;2.10;99.90;;;;;;4955017;29;20074;-87
2022/01/22 06:19:29;;;;;;;3.45;1.63;;;2.10;99.90;;;;;;4970768;28;20084;-88
2022/01/22 06:21:54;;;;;;;1.73;1.45;;;2.20;99.90;;;;;;4955178;29;20138;-89
2022/01/22 06:24:22;;;;;;;2.45;1.77;;;2.20;99.90;;;;;;4971894;28;20145;-89
2022/01/22 06:26:49;;;;;;;4.53;2.20;;;2.20;99.90;;;;;;4969126;28;20039;-88
2022/01/22 06:29:15;;;;;;;1.98;1.40;;;2.20;99.90;;;;;;4954366;29;20066;-88
2022/01/22 06:31:42;;;;;;;2.88;1.58;;;2.20;99.90;;;;;;4969664;29;20399;-89
2022/01/22 06:34:09;;;;;;;3.13;1.77;;;2.20;99.90;;;;;;4969010;28;20027;-88
2022/01/22 06:36:36;;;;;;;3.38;1.73;;;2.20;99.90;;;;;;4936606;29;20027;-87
2022/01/22 06:39:16;;;;;;;5.25;1.85;;;2.20;99.90;;;;;;4967355;28;20078;-87
2022/01/22 06:42:00;;;;;;;3.72;1.73;;;2.10;99.90;;;;;;4968085;28;20050;-87
2022/01/22 06:44:42;;;;;;;4.55;2.10;;;2.10;99.90;;;;;;4976269;28;20038;-87
2022/01/22 06:47:27;;;;;;;2.33;1.90;;;2.20;99.90;;;;;;4980794;28;20093;-87
2022/01/22 06:49:53;;;;;;;2.83;1.70;;;2.20;99.90;;;;;;4980879;28;20051;-88
2022/01/22 06:52:25;;;;;;;3.08;1.52;;;2.20;99.90;;;;;;4979996;28;20030;-87
2022/01/22 06:54:56;;;;;;;2.67;1.67;;;2.30;99.90;;;;;;4979484;28;20059;-88
2022/01/22 06:57:22;;;;;;;1.73;1.35;;;2.40;99.90;;;;;;4979838;28;20035;-87
2022/01/22 06:59:49;;;;;;;3.10;1.85;;;2.40;99.90;;;;;;4977943;28;20045;-88
2022/01/22 07:02:19;;;;;;;2.15;1.60;;;2.50;99.90;;;;;;4979206;28;20027;-89
2022/01/22 07:04:46;;;;;;;3.70;1.65;;;2.50;99.90;;;;;;4979454;28;20015;-88
2022/01/22 07:07:31;;;;;;;1.63;1.52;;;2.60;99.90;;;;;;4966005;28;20023;-89
2022/01/22 07:09:57;;;;;;;2.47;1.77;;;2.60;99.90;;;;;;4980541;28;20039;-89
2022/01/22 07:12:23;;;;;;;2.13;1.80;;;2.60;99.90;;;;;;4980595;28;20063;-90
2022/01/22 07:14:49;;;;;;;1.70;1.42;;;2.60;99.90;;;;;;4980428;28;20058;-89
2022/01/22 07:17:17;;;;;;;2.47;1.80;;;2.60;99.90;;;;;;4980632;28;20016;-87
2022/01/22 07:19:52;;;;;;;2.05;1.58;;;2.60;99.90;;;;;;4961688;28;20031;-88
2022/01/22 07:22:47;;;;;;;2.58;1.85;;;2.60;99.90;;;;;;4968317;28;20038;-88
2022/01/22 07:25:31;;;;;;;2.37;1.70;;;2.60;99.90;;;;;;4971173;28;20058;-88
2022/01/22 07:28:05;;;;;;;4.88;1.70;;;2.70;99.90;;;;;;4968539;29;20023;-86
2022/01/22 07:30:31;;;;;;;2.20;1.73;;;2.70;99.90;;;;;;4951347;29;20137;-86
2022/01/22 07:32:58;;;;;;;3.83;1.75;;;2.70;99.90;;;;;;4975755;28;20033;-86
2022/01/22 07:35:24;;;;;;;2.30;1.90;;;2.70;99.90;;;;;;4978449;28;20462;-86
2022/01/22 07:38:02;;;;;;;2.10;1.80;;;2.70;99.90;;;;;;4979243;28;20015;-84
2022/01/22 07:40:28;;;;;;;2.35;1.80;;;2.80;99.90;;;;;;4988164;28;20050;-85
2022/01/22 07:43:00;;;;;;;2.58;2.00;;;2.80;99.90;;;;;;4988504;28;20015;-83
2022/01/22 07:45:45;;;;;;;2.78;1.98;;;2.90;99.90;;;;;;4985021;28;20067;-84
2022/01/22 07:48:17;;;;;;;4.63;1.60;;;3.00;99.90;;;;;;4991561;28;20023;-84
2022/01/22 07:51:02;;;;;;;1.50;1.40;;;3.10;99.90;;;;;;4979634;28;20070;-85
2022/01/22 07:53:29;;;;;;;4.82;2.28;;;3.20;99.90;;;;;;4987637;28;20030;-84
2022/01/22 07:55:57;;;;;;;6.15;2.70;;;3.30;99.90;;;;;;4991989;28;20122;-82
2022/01/22 07:58:23;;;;;;;3.92;1.95;;;3.50;99.90;;;;;;4985413;28;20054;-87
2022/01/22 08:00:48;;;;;;;1.80;1.35;;;3.50;99.90;;;;;;4980391;28;20046;-83
2022/01/22 08:03:15;;;;;;;2.97;1.70;;;3.60;99.90;;;;;;4986551;28;20035;-85
2022/01/22 08:06:07;;;;;;;3.55;1.80;;;3.60;99.90;;;;;;4955600;29;20051;-87
2022/01/22 08:08:56;;;;;;;5.88;2.40;;;3.70;99.90;;;;;;4957420;29;20043;-84
2022/01/22 08:11:40;;;;;;;3.47;2.20;;;3.70;99.90;;;;;;4981624;28;20038;-84
2022/01/22 08:14:09;;;;;;;4.55;2.20;;;3.90;99.90;;;;;;4973883;28;20034;-84
2022/01/22 08:16:36;;;;;;;2.20;1.58;;;3.90;99.90;;;;;;4978349;28;20090;-86
2022/01/22 08:19:03;;;;;;;2.08;1.48;;;4.00;99.90;;;;;;4979011;28;20031;-83
2022/01/22 08:21:30;;;;;;;5.93;1.77;;;4.10;99.90;;;;;;4978329;28;20019;-84
2022/01/22 08:24:16;;;;;;;1.65;1.33;;;4.10;99.90;;;;;;4978675;28;20053;-82
2022/01/22 08:27:03;;;;;;;3.03;1.75;;;4.20;99.90;;;;;;4978628;28;20015;-83
2022/01/22 08:29:29;;;;;;;1.38;1.00;;;4.20;99.90;;;;;;4977992;28;20115;-84
2022/01/22 08:37:24;;;;;;;7.10;3.50;;;4.20;99.90;;;;;;4977647;28;20066;-84
2022/01/22 08:39:50;;;;;;;3.30;1.67;;;4.20;99.90;;;;;;4978398;28;20019;-85
2022/01/22 08:42:16;;;;;;;2.10;1.50;;;4.30;99.90;;;;;;4978054;28;20043;-84
2022/01/22 08:44:42;;;;;;;2.10;1.38;;;4.40;99.90;;;;;;4977881;28;20041;-84
2022/01/22 08:47:15;;;;;;;2.97;1.85;;;4.50;99.90;;;;;;4973813;28;20046;-84
2022/01/22 08:49:41;;;;;;;8.45;3.40;;;4.50;99.90;;;;;;4970869;28;20031;-86
2022/01/22 08:52:12;;;;;;;4.93;2.58;;;4.60;99.90;;;;;;4969598;29;20023;-84
2022/01/22 08:54:39;;;;;;;2.22;1.35;;;4.60;99.90;;;;;;4970415;28;20035;-82
2022/01/22 08:57:06;;;;;;;2.40;1.60;;;4.60;99.90;;;;;;4967559;29;20024;-86
2022/01/22 08:59:36;;;;;;;2.17;1.30;;;4.70;99.90;;;;;;4950040;29;20050;-85
2022/01/22 09:02:05;;;;;;;1.60;1.10;;;4.70;99.90;;;;;;4961756;29;20011;-85
2022/01/22 09:04:52;;;;;;;2.72;1.38;;;4.70;99.90;;;;;;4949508;29;20064;-85
2022/01/22 09:07:45;;;;;;;1.10;0.95;;;4.70;99.90;;;;;;4946816;29;20027;-84
2022/01/22 09:10:31;;;;;;;2.97;1.80;;;4.80;99.90;;;;;;4953914;29;20039;-85
2022/01/22 09:13:21;;;;;;;1.65;0.90;;;4.80;99.90;;;;;;4959056;28;20043;-85
2022/01/22 09:16:10;;;;;;;1.35;1.20;;;4.90;99.90;;;;;;4947387;29;20039;-86
2022/01/22 09:18:36;;;;;;;2.45;1.35;;;5.00;99.90;;;;;;4930233;29;20491;-85
2022/01/22 09:21:04;;;;;;;3.08;1.85;;;5.20;99.90;;;;;;4949177;29;20062;-85
2022/01/22 09:23:34;;;;;;;3.35;2.03;;;5.70;99.90;;;;;;4955826;29;20115;-85
2022/01/22 09:26:05;;;;;;;3.08;1.77;;;6.10;99.90;;;;;;4954730;28;20031;-89
2022/01/22 09:28:34;;;;;;;2.85;1.52;;;6.60;99.90;;;;;;4945330;29;20039;-86
2022/01/22 09:31:00;;;;;;;1.13;0.75;;;7.10;99.90;;;;;;4943028;29;20204;-85
2022/01/22 09:33:26;;;;;;;2.47;1.02;;;7.30;99.90;;;;;;4944238;29;20036;-83
2022/01/22 09:36:04;;;;;;;1.63;1.05;;;7.60;99.90;;;;;;4943823;29;20035;-85
2022/01/22 09:38:57;;;;;;;4.07;1.30;;;8.10;99.90;;;;;;4945065;29;20051;-85
2022/01/22 09:41:55;;;;;;;1.73;1.17;;;8.20;99.90;;;;;;4944481;29;20516;-83
2022/01/22 09:44:44;;;;;;;2.50;1.17;;;7.70;99.90;;;;;;4948772;29;20119;-86
2022/01/22 09:47:38;;;;;;;1.40;1.10;;;7.20;99.90;;;;;;4945310;29;20035;-87
2022/01/22 09:50:29;;;;;;;2.15;1.10;;;6.90;99.90;;;;;;4945422;29;20044;-85
2022/01/22 09:53:14;;;;;;;1.92;1.15;;;6.40;99.90;;;;;;4945367;29;20412;-83
2022/01/22 09:56:00;;;;;;;1.73;1.25;;;6.20;99.90;;;;;;4944708;29;20039;-84
2022/01/22 09:58:59;;;;;;;1.20;1.10;;;6.10;99.90;;;;;;4942883;29;20031;-85
2022/01/22 10:01:35;;;;;;;3.47;1.50;;;6.00;99.90;;;;;;4950324;28;20060;-87
2022/01/22 10:04:09;;;;;;;2.88;1.35;;;6.00;99.90;;;;;;4945020;29;20102;-85
2022/01/22 10:07:05;;;;;;;2.10;1.38;;;6.00;99.90;;;;;;4953780;28;20052;-85
2022/01/22 10:09:57;;;;;;;1.75;1.30;;;6.10;99.90;;;;;;4952279;28;20031;-85
2022/01/22 10:12:45;;;;;;;3.08;1.55;;;6.00;99.90;;;;;;4956778;28;20267;-85
2022/01/22 10:15:20;;;;;;;1.98;1.40;;;6.00;99.90;;;;;;4955732;29;20027;-86
2022/01/22 10:17:46;;;;;;;3.10;1.17;;;6.10;99.90;;;;;;4941261;28;20028;-87
2022/01/22 10:20:21;;;;;;;1.88;1.30;;;6.10;99.90;;;;;;4958185;28;20027;-85
2022/01/22 10:22:51;;;;;;;1.98;1.23;;;6.10;99.90;;;;;;4957341;28;20028;-85
2022/01/22 10:25:21;;;;;;;2.97;1.23;;;6.20;99.90;;;;;;4957699;28;20020;-84
2022/01/22 10:27:58;;;;;;;2.03;1.10;;;6.10;99.90;;;;;;4957514;28;20055;-82
2022/01/22 10:30:42;;;;;;;1.83;1.05;;;6.00;99.90;;;;;;4958254;28;20071;-84
2022/01/22 10:36:18;;;;;;;2.15;1.45;;;5.90;99.90;;;;;;4957997;28;20066;-85
2022/01/22 10:39:26;;;;;;;6.90;1.52;;;5.90;99.90;;;;;;4957776;28;20212;-84
2022/01/22 10:41:52;;;;;;;2.65;1.70;;;6.00;99.90;;;;;;4958105;28;20032;-86
2022/01/22 10:44:34;;;;;;;7.13;3.00;;;6.20;99.90;;;;;;4957971;28;20038;-83
2022/01/22 10:47:04;;;;;;;4.82;2.80;;;6.80;99.90;;;;;;4957355;28;20104;-86
2022/01/22 10:49:30;;;;;;;13.50;2.50;;;7.50;99.90;;;;;;4958049;28;20016;-85
2022/01/22 10:52:00;;;;;;;5.90;1.55;;;8.50;99.90;;;;;;4958041;28;20032;-84
2022/01/22 10:54:36;;;;;;;2.47;1.70;;;9.50;99.90;;;;;;4957720;28;20083;-86
2022/01/22 10:57:23;;;;;;;2.83;1.17;;;10.40;99.90;;;;;;4953019;29;20142;-87
2022/01/22 10:59:55;;;;;;;1.13;0.93;;;11.10;99.10;;;;;;4948595;29;20054;-87
2022/01/22 11:02:35;;;;;;;3.42;1.23;;;11.90;97.40;;;;;;4947088;29;20040;-87
2022/01/22 11:05:03;;;;;;;2.80;1.17;;;12.00;95.80;;;;;;4948143;29;20035;-85
2022/01/22 11:07:29;;;;;;;1.20;0.88;;;11.70;95.60;;;;;;4948694;28;20079;-85
2022/01/22 11:09:55;;;;;;;1.85;1.00;;;11.80;95.20;;;;;;4950413;28;20040;-86
2022/01/22 11:12:21;;;;;;;7.55;1.85;;;11.60;95.00;;;;;;4947996;29;20028;-87
2022/01/22 11:14:46;;;;;;;2.53;1.40;;;11.60;94.20;;;;;;4945343;29;20027;-86
2022/01/22 11:17:13;;;;;;;1.45;1.10;;;12.00;93.30;;;;;;4948018;29;20024;-87
2022/01/22 11:19:43;;;;;;;2.15;1.50;;;12.70;92.20;;;;;;4946935;29;20111;-86
2022/01/22 11:22:11;;;;;;;3.00;1.33;;;13.20;90.50;;;;;;4947140;29;20036;-86
2022/01/22 11:24:42;;;;;;;2.83;1.10;;;11.80;90.80;;;;;;4954454;29;20046;-86
2022/01/22 11:27:10;;;;;;;1.90;1.38;;;10.40;92.40;;;;;;4954185;29;20040;-84
2022/01/22 11:29:54;;;;;;;1.70;1.02;;;9.40;93.70;;;;;;4952365;29;20098;-87
2022/01/22 11:32:27;;;;;;;2.63;1.27;;;8.80;94.80;;;;;;4953418;29;20070;-87
2022/01/22 11:34:57;;;;;;;2.60;1.20;;;8.20;96.10;;;;;;4948646;29;20036;-88
2022/01/22 11:37:32;;;;;;;3.50;1.63;;;7.80;97.00;;;;;;4946738;29;20032;-85
2022/01/22 11:40:19;;;;;;;3.03;1.42;;;7.30;99.50;;;;;;4946029;29;20024;-87
2022/01/22 11:43:02;;;;;;;4.53;1.70;;;6.70;99.90;;;;;;4946882;29;20036;-88
2022/01/22 11:45:41;;;;;;;3.00;1.63;;;6.30;99.90;;;;;;4950696;29;20035;-86
2022/01/22 11:48:17;;;;;;;5.07;1.73;;;6.00;99.90;;;;;;4954857;29;20417;-85
2022/01/22 11:50:49;;;;;;;4.93;2.17;;;5.50;99.90;;;;;;4949466;29;20202;-85
2022/01/22 11:53:24;;;;;;;2.88;1.77;;;5.20;99.90;;;;;;4946039;29;20044;-86
2022/01/22 11:56:09;;;;;;;6.78;1.73;;;4.90;99.90;;;;;;4948279;29;20032;-87
2022/01/22 11:58:57;;;;;;;4.18;1.52;;;4.80;99.90;;;;;;5006305;23;20038;-87
2022/01/22 12:01:38;;;;;;;4.75;1.30;;;4.70;99.90;;;;;;5000011;28;20022;-87
2022/01/22 12:04:06;;;;;;;2.65;1.60;;;4.80;99.90;;;;;;5000153;28;20038;-87
2022/01/22 12:06:32;;;;;;;2.58;1.23;;;4.70;99.90;;;;;;4999821;28;20014;-88
2022/01/22 12:09:08;;;;;;;2.55;1.40;;;4.70;99.90;;;;;;5014770;28;20502;-86
2022/01/22 12:14:53;;;;;;;4.78;2.42;;;4.80;99.90;;;;;;4999646;28;20050;-88
2022/01/22 12:17:40;;;;;;;7.90;3.33;;;4.70;99.90;;;;;;4998445;28;20053;-87
2022/01/22 12:20:28;;;;;;;4.03;1.60;;;4.70;99.90;;;;;;4998716;28;20022;-87
2022/01/22 12:22:52;;;;;;;2.70;1.15;;;4.90;99.90;;;;;;4997616;28;20071;-87
2022/01/22 12:25:21;;;;;;;3.45;1.52;;;4.90;99.90;;;;;;4999436;28;20023;-88
2022/01/22 12:27:52;;;;;;;2.42;1.50;;;4.80;99.90;;;;;;4999426;28;20018;-88
2022/01/22 12:30:38;;;;;;;3.53;1.75;;;4.70;99.90;;;;;;4999125;28;20011;-87
2022/01/22 12:33:11;;;;;;;2.53;1.42;;;4.50;99.90;;;;;;4998435;28;20026;-87
2022/01/22 12:35:55;;;;;;;6.80;1.80;;;4.40;99.90;;;;;;4999334;28;20046;-88
2022/01/22 12:38:45;;;;;;;1.85;1.25;;;4.20;99.90;;;;;;4999237;28;20094;-88
2022/01/22 12:44:05;;;;;;;4.43;1.77;;;4.10;99.90;;;;;;4999193;28;20030;-88
2022/01/22 12:46:32;;;;;;;4.70;2.03;;;4.20;99.90;;;;;;4998776;28;20026;-86
2022/01/22 12:48:58;;;;;;;3.28;1.70;;;4.30;99.90;;;;;;4999451;28;20042;-87
2022/01/22 12:51:26;;;;;;;2.55;1.52;;;4.30;99.90;;;;;;4998850;28;20022;-87
2022/01/22 12:53:53;;;;;;;5.75;2.65;;;4.30;99.90;;;;;;4999329;28;20026;-87
2022/01/22 12:59:07;;;;;;;4.22;1.85;;;4.20;99.90;;;;;;4998512;28;20038;-87
2022/01/22 13:01:34;;;;;;;;;;;4.20;99.90;;;;;;4982123;28;20030;-88
2022/01/22 13:04:03;;;;;;;4.28;1.73;;;4.20;99.90;;;;;;5061759;23;19910;-87
2022/01/22 13:06:48;;;;;;;3.35;1.83;;;4.30;99.90;;;;;;4959445;29;20099;-87
2022/01/22 13:09:49;;;;;;;3.40;1.73;;;4.30;99.90;;;;;;4973777;28;20039;-88
2022/01/22 13:12:16;;;;;;;4.53;1.65;;;4.40;99.90;;;;;;4959233;29;20066;-89
2022/01/22 13:14:43;;;;;;;2.47;1.73;;;4.50;99.90;;;;;;4959501;29;20063;-89
2022/01/22 13:17:14;;;;;;;4.07;1.50;;;4.50;99.90;;;;;;4959988;29;20131;-87
2022/01/22 13:19:40;;;;;;;3.28;1.40;;;4.50;99.90;;;;;;4960046;29;20069;-88
2022/01/22 13:22:06;;;;;;;5.93;2.15;;;4.50;99.90;;;;;;4959318;29;20012;-88
2022/01/22 13:24:35;;;;;;;4.50;2.00;;;4.50;99.90;;;;;;4960174;29;20031;-88
2022/01/22 13:27:16;;;;;;;4.40;2.20;;;4.30;99.90;;;;;;4960006;29;20040;-87
2022/01/22 13:29:54;;;;;;;4.40;2.25;;;4.20;99.90;;;;;;4960010;29;20047;-87
2022/01/22 13:49:31;;;;;;;3.05;2.08;;;3.90;99.90;;;;;;4939469;29;20059;-87
2022/01/22 13:52:04;;;;;;;4.18;1.98;;;3.90;99.90;;;;;;4940801;29;20039;-86
2022/01/22 13:54:38;;;;;;;5.43;1.88;;;3.80;99.90;;;;;;4940606;29;20051;-88
2022/01/22 13:57:08;;;;;;;6.28;2.70;;;3.80;99.90;;;;;;4938866;29;20044;-89
2022/01/22 13:59:41;;;;;;;3.25;2.10;;;3.90;99.90;;;;;;4921863;29;20545;-87
2022/01/22 14:04:50;;;;;;;5.85;2.03;;;3.80;99.90;;;;;;4940349;29;20040;-86
2022/01/22 14:07:17;;;;;;;6.38;2.38;;;3.80;99.90;;;;;;4940194;29;20028;-87
2022/01/22 14:09:56;;;;;;;4.13;2.25;;;3.90;99.90;;;;;;4940107;29;20061;-87
2022/01/22 14:12:41;;;;;;;3.08;2.28;;;3.90;99.90;;;;;;4940843;29;20044;-87
2022/01/22 14:15:14;;;;;;;3.17;1.75;;;3.90;99.90;;;;;;4940657;29;20043;-85
2022/01/22 14:20:47;;;;;;;3.75;2.40;;;3.90;99.90;;;;;;4940755;29;20028;-87
2022/01/22 14:23:32;;;;;;;3.58;2.15;;;3.90;99.90;;;;;;4939719;29;20071;-89
2022/01/22 14:26:05;;;;;;;2.75;2.03;;;3.90;99.90;;;;;;4939971;29;20043;-89
2022/01/22 14:28:47;;;;;;;8.23;2.33;;;3.90;99.90;;;;;;4939837;29;20104;-88
2022/01/22 14:35:42;;;;;;;2.97;1.98;;;3.90;99.90;;;;;;4964201;29;20059;-88
2022/01/22 14:38:22;;;;;;;4.55;2.17;;;3.90;99.90;;;;;;4964808;29;20027;-87
2022/01/22 14:44:06;;;;;;;4.80;2.25;;;3.80;99.90;;;;;;4957519;29;20024;-89
2022/01/22 14:46:49;;;;;;;4.60;2.50;;;3.90;99.90;;;;;;4977397;28;20055;-85
2022/01/22 14:49:15;;;;;;;5.70;2.15;;;3.80;99.90;;;;;;4962507;29;20074;-86
2022/01/22 14:51:41;;;;;;;3.33;2.25;;;3.80;99.90;;;;;;4960582;29;20032;-88
2022/01/22 14:54:07;;;;;;;7.28;2.30;;;3.80;99.90;;;;;;4951911;29;20543;-88
2022/01/22 14:56:33;;;;;;;8.13;2.45;;;3.80;99.90;;;;;;4949615;29;20031;-91
2022/01/22 14:58:59;;;;;;;4.45;2.42;;;3.80;99.90;;;;;;4965309;28;20424;-89
2022/01/22 15:01:24;;;;;;;6.35;3.20;;;3.80;99.90;;;;;;4966069;28;20028;-89
2022/01/22 15:03:50;;;;;;;3.78;2.20;;;3.70;99.90;;;;;;4952552;29;20047;-88
2022/01/22 15:06:16;;;;;;;6.57;2.95;;;3.70;99.90;;;;;;4969378;28;20063;-87
2022/01/22 15:08:41;;;;;;;4.93;2.53;;;3.70;99.90;;;;;;4959738;29;20027;-85
2022/01/22 15:11:07;;;;;;;6.32;3.03;;;3.70;99.90;;;;;;4960189;29;20123;-85
2022/01/22 15:13:33;;;;;;;5.80;2.38;;;3.60;99.90;;;;;;4961892;29;20035;-85
2022/01/22 15:16:01;;;;;;;4.95;2.83;;;3.60;99.90;;;;;;4960869;29;20047;-87
2022/01/22 15:21:10;;;;;;;3.83;2.20;;;3.50;99.90;;;;;;4947971;29;20115;-86
2022/01/22 15:23:36;;;;;;;4.60;2.60;;;3.50;99.90;;;;;;4949295;29;20028;-87
2022/01/22 15:26:05;;;;;;;6.97;2.40;;;3.50;99.90;;;;;;4945981;29;20034;-87
2022/01/22 15:28:44;;;;;;;2.17;1.70;;;3.50;99.90;;;;;;4942564;29;20020;-89
2022/01/22 15:31:29;;;;;;;4.10;2.20;;;3.50;99.90;;;;;;4945326;29;20027;-86
2022/01/22 15:37:15;;;;;;;2.33;1.70;;;3.40;99.90;;;;;;4938682;29;20075;-86
2022/01/22 15:39:41;;;;;;;5.78;2.40;;;3.40;99.90;;;;;;4947196;29;20020;-88